Time;durP1;ratioP1;P1;durP2;ratioP2;P2;SDS_P1;SDS_P2;PMS_P1;PMS_P2;Temp;Humidity;BMP_temperature;BMP_pressure;BME280_temperature;BME280_humidity;BME280_pressure;Samples;Min_cycle;Max_cycle;Signal;HPM_P1;HPM_P2
2022/03/12 00:01:16;;;;;;;18.00;12.27;;;6.20;71.60;;;;;;4978280;28;20232;-87
2022/03/12 00:04:06;;;;;;;23.85;13.18;;;6.10;72.00;;;;;;4980120;28;20233;-86
2022/03/12 00:06:39;;;;;;;19.27;13.73;;;6.20;72.30;;;;;;4977182;28;20237;-89
2022/03/12 00:09:09;;;;;;;23.65;12.90;;;6.20;72.20;;;;;;4971585;28;20213;-87
2022/03/12 00:11:51;;;;;;;21.77;12.73;;;6.20;72.10;;;;;;4980403;28;20220;-88
2022/03/12 00:14:23;;;;;;;22.98;12.75;;;6.40;71.80;;;;;;4974524;28;20221;-89
2022/03/12 00:16:50;;;;;;;18.40;13.60;;;6.40;71.40;;;;;;4979894;28;20186;-87
2022/03/12 00:19:21;;;;;;;20.38;13.60;;;6.40;72.00;;;;;;4980163;28;20241;-86
2022/03/12 00:21:50;;;;;;;21.48;12.85;;;6.20;72.10;;;;;;4977313;28;20216;-88
2022/03/12 00:24:18;;;;;;;17.27;12.32;;;6.20;72.50;;;;;;4972990;29;20235;-89
2022/03/12 00:26:59;;;;;;;20.23;12.73;;;6.20;72.50;;;;;;4971031;28;20567;-87
2022/03/12 00:29:27;;;;;;;19.40;12.27;;;6.20;72.60;;;;;;4972038;28;20273;-89
2022/03/12 00:31:54;;;;;;;18.17;12.73;;;6.30;72.60;;;;;;4976440;28;20198;-87
2022/03/12 00:34:25;;;;;;;19.58;11.70;;;6.30;72.70;;;;;;4972016;28;20273;-88
2022/03/12 00:36:56;;;;;;;19.60;12.75;;;6.40;72.90;;;;;;4970786;28;20205;-87
2022/03/12 00:39:26;;;;;;;22.80;13.10;;;6.20;72.50;;;;;;4971345;28;20260;-88
2022/03/12 00:42:15;;;;;;;16.52;11.90;;;6.20;72.50;;;;;;4976074;28;20465;-86
2022/03/12 00:44:42;;;;;;;19.48;12.38;;;6.30;73.30;;;;;;4972339;28;20209;-88
2022/03/12 00:47:09;;;;;;;20.60;11.73;;;6.20;73.30;;;;;;4970012;28;20206;-89
2022/03/12 00:49:39;;;;;;;25.15;14.27;;;6.40;73.30;;;;;;4966461;28;20201;-89
2022/03/12 00:52:15;;;;;;;22.27;12.02;;;6.60;73.00;;;;;;4976611;28;20218;-89
2022/03/12 00:54:45;;;;;;;18.58;12.38;;;6.50;72.90;;;;;;4979598;28;20280;-87
2022/03/12 00:57:20;;;;;;;20.90;13.20;;;6.50;72.90;;;;;;4977698;28;20223;-88
2022/03/12 00:59:54;;;;;;;17.73;12.25;;;6.50;72.70;;;;;;4976170;28;20233;-88
2022/03/12 01:02:24;;;;;;;17.45;12.55;;;6.10;72.90;;;;;;4967712;28;20289;-88
2022/03/12 01:04:51;;;;;;;19.30;11.27;;;6.40;73.70;;;;;;4964001;29;20209;-87
2022/03/12 01:07:18;;;;;;;21.52;12.65;;;6.30;73.70;;;;;;4962816;28;20485;-88
2022/03/12 01:09:46;;;;;;;20.27;13.13;;;6.30;73.60;;;;;;4962032;28;20718;-89
2022/03/12 01:12:13;;;;;;;17.85;12.55;;;6.20;74.60;;;;;;4961147;29;20281;-89
2022/03/12 01:14:41;;;;;;;19.17;12.25;;;6.10;75.00;;;;;;4962598;28;20732;-89
2022/03/12 01:17:08;;;;;;;22.35;12.30;;;6.20;75.40;;;;;;4966864;28;20233;-89
2022/03/12 01:19:35;;;;;;;19.47;12.17;;;6.30;76.00;;;;;;4979038;28;20221;-88
2022/03/12 01:22:03;;;;;;;21.77;12.45;;;6.50;74.40;;;;;;4969224;28;20474;-88
2022/03/12 01:24:31;;;;;;;22.48;12.93;;;6.40;74.50;;;;;;4977537;28;20248;-88
2022/03/12 01:27:10;;;;;;;19.05;12.23;;;6.00;74.10;;;;;;4981078;28;20216;-87
2022/03/12 01:29:41;;;;;;;22.45;12.90;;;5.90;74.50;;;;;;4974958;28;20209;-89
2022/03/12 01:32:10;;;;;;;20.92;13.65;;;5.80;74.70;;;;;;4964382;28;20221;-87
2022/03/12 01:34:38;;;;;;;19.23;12.10;;;6.20;75.20;;;;;;4964554;28;20217;-89
2022/03/12 01:37:09;;;;;;;18.02;12.20;;;6.10;75.10;;;;;;4963292;29;20472;-88
2022/03/12 01:39:36;;;;;;;19.70;12.30;;;6.30;75.00;;;;;;4964035;28;20309;-89
2022/03/12 01:42:07;;;;;;;30.98;12.30;;;6.40;75.00;;;;;;4964562;28;20218;-89
2022/03/12 01:44:34;;;;;;;19.52;12.27;;;6.40;74.60;;;;;;4964572;28;20257;-89
2022/03/12 01:47:15;;;;;;;22.73;13.45;;;6.40;75.00;;;;;;4970749;28;20278;-89
2022/03/12 01:49:45;;;;;;;18.52;11.82;;;6.40;75.00;;;;;;4964792;28;20294;-89
2022/03/12 01:52:13;;;;;;;20.17;12.48;;;6.10;74.40;;;;;;4965223;28;20245;-89
2022/03/12 01:54:44;;;;;;;22.42;12.85;;;6.30;74.20;;;;;;4963716;28;20214;-89
2022/03/12 01:57:12;;;;;;;19.17;12.02;;;6.30;74.10;;;;;;4970844;28;20235;-88
2022/03/12 01:59:39;;;;;;;16.90;11.52;;;6.10;73.30;;;;;;4970590;28;20245;-88
2022/03/12 02:02:13;;;;;;;16.17;11.30;;;6.30;72.90;;;;;;4963933;28;20199;-88
2022/03/12 02:04:42;;;;;;;15.23;10.30;;;6.40;72.40;;;;;;4980816;28;20189;-88
2022/03/12 02:07:13;;;;;;;16.67;10.98;;;6.30;70.00;;;;;;4969363;28;20269;-88
2022/03/12 02:09:44;;;;;;;15.38;10.15;;;6.50;70.40;;;;;;4973516;28;20229;-89
2022/03/12 02:12:12;;;;;;;14.73;10.82;;;6.60;70.20;;;;;;4978284;28;20202;-87
2022/03/12 02:14:43;;;;;;;17.42;11.98;;;6.60;70.60;;;;;;4973939;28;20205;-89
2022/03/12 02:17:19;;;;;;;15.90;11.40;;;6.60;71.10;;;;;;4982037;28;20672;-89
2022/03/12 02:19:48;;;;;;;22.20;10.83;;;6.10;70.70;;;;;;4966734;28;20233;-88
2022/03/12 02:22:17;;;;;;;19.85;11.77;;;6.70;71.30;;;;;;4963002;28;20840;-90
2022/03/12 02:24:53;;;;;;;20.43;10.67;;;6.70;71.10;;;;;;4966117;28;20224;-89
2022/03/12 02:27:20;;;;;;;16.75;11.35;;;6.30;70.30;;;;;;4970500;28;20412;-88
2022/03/12 02:29:52;;;;;;;18.35;10.02;;;6.50;70.00;;;;;;4972038;28;20225;-89
2022/03/12 02:32:28;;;;;;;16.88;10.30;;;7.10;69.00;;;;;;4963010;28;20225;-88
2022/03/12 02:34:57;;;;;;;14.43;10.15;;;7.20;67.70;;;;;;4962311;28;20209;-89
2022/03/12 02:37:29;;;;;;;16.52;11.30;;;7.10;67.80;;;;;;4961892;28;20209;-89
2022/03/12 02:40:05;;;;;;;18.42;10.20;;;7.10;68.60;;;;;;4964293;28;20237;-88
2022/03/12 02:42:37;;;;;;;17.25;12.38;;;7.00;69.40;;;;;;4964535;29;20580;-88
2022/03/12 02:45:08;;;;;;;17.58;11.93;;;6.90;70.50;;;;;;4973490;28;20277;-89
2022/03/12 02:47:40;;;;;;;19.43;11.93;;;6.80;69.70;;;;;;4978410;28;20259;-88
2022/03/12 02:50:14;;;;;;;16.75;10.50;;;6.30;69.50;;;;;;4964289;28;20473;-88
2022/03/12 02:52:53;;;;;;;14.80;11.45;;;6.70;70.30;;;;;;4964601;28;20208;-88
2022/03/12 02:55:23;;;;;;;16.90;11.37;;;6.70;70.50;;;;;;4965861;29;20240;-87
2022/03/12 02:57:52;;;;;;;24.45;10.90;;;6.70;70.30;;;;;;4968455;29;20536;-87
2022/03/12 03:00:23;;;;;;;18.23;10.80;;;6.80;70.20;;;;;;4967628;28;20245;-89
2022/03/12 03:02:54;;;;;;;18.13;12.27;;;6.40;69.50;;;;;;4965755;28;20202;-88
2022/03/12 03:05:36;;;;;;;14.75;10.13;;;6.80;69.40;;;;;;4964113;28;20881;-88
2022/03/12 03:08:06;;;;;;;15.40;10.37;;;6.70;69.30;;;;;;4963959;28;20245;-88
2022/03/12 03:10:37;;;;;;;17.08;10.75;;;6.60;69.40;;;;;;4964500;28;20477;-88
2022/03/12 03:13:33;;;;;;;16.80;9.70;;;6.70;69.60;;;;;;4965024;28;20214;-89
2022/03/12 03:16:05;;;;;;;16.20;10.60;;;6.40;69.00;;;;;;4964423;28;20204;-87
2022/03/12 03:18:39;;;;;;;16.45;10.52;;;6.70;69.60;;;;;;4975005;28;20261;-88
2022/03/12 03:21:10;;;;;;;16.40;11.05;;;6.80;69.30;;;;;;4970922;28;20229;-89
2022/03/12 03:23:41;;;;;;;14.32;10.13;;;6.70;69.10;;;;;;4972574;28;20217;-88
2022/03/12 03:26:12;;;;;;;13.98;10.15;;;6.60;69.20;;;;;;4972924;28;20213;-88
2022/03/12 03:28:41;;;;;;;19.02;10.65;;;6.60;69.40;;;;;;4972036;28;20201;-88
2022/03/12 03:31:08;;;;;;;15.93;10.32;;;6.60;69.20;;;;;;5004619;23;20228;-87
2022/03/12 03:33:35;;;;;;;16.60;10.70;;;6.60;69.10;;;;;;5000526;28;20195;-88
2022/03/12 03:36:02;;;;;;;20.02;10.27;;;6.50;69.20;;;;;;4999973;28;20224;-87
2022/03/12 03:38:30;;;;;;;16.40;10.88;;;6.10;68.90;;;;;;4992397;28;20196;-87
2022/03/12 03:40:58;;;;;;;18.85;10.82;;;6.00;69.00;;;;;;4988847;28;20243;-88
2022/03/12 03:43:26;;;;;;;17.63;10.70;;;6.50;69.60;;;;;;4990413;28;20232;-87
2022/03/12 03:45:56;;;;;;;15.85;10.20;;;6.10;69.30;;;;;;4995878;28;20216;-88
2022/03/12 03:48:24;;;;;;;15.20;8.68;;;6.50;69.80;;;;;;4979681;28;20213;-87
2022/03/12 03:50:52;;;;;;;15.93;9.70;;;6.50;69.80;;;;;;4978740;28;20319;-88
2022/03/12 03:53:22;;;;;;;15.23;10.18;;;6.20;69.50;;;;;;4978687;28;20203;-88
2022/03/12 03:55:51;;;;;;;14.55;10.35;;;6.50;70.10;;;;;;4978632;28;20636;-88
2022/03/12 03:58:18;;;;;;;15.80;10.10;;;6.70;70.60;;;;;;4978641;28;20219;-87
2022/03/12 04:00:57;;;;;;;13.70;9.88;;;6.50;70.40;;;;;;4978310;28;20323;-88
2022/03/12 04:03:24;;;;;;;21.75;10.90;;;6.40;70.20;;;;;;4978344;28;20642;-88
2022/03/12 04:05:52;;;;;;;15.15;9.43;;;6.40;70.20;;;;;;4978055;28;20220;-88
2022/03/12 04:08:21;;;;;;;20.13;11.23;;;6.00;69.90;;;;;;4979341;28;20235;-88
2022/03/12 04:10:48;;;;;;;15.85;9.30;;;6.00;70.20;;;;;;4982094;28;20280;-88
2022/03/12 04:13:18;;;;;;;15.90;10.20;;;5.90;70.50;;;;;;4978702;28;20287;-87
2022/03/12 04:15:45;;;;;;;15.13;9.35;;;6.10;71.20;;;;;;4981575;28;20209;-87
2022/03/12 04:18:15;;;;;;;16.80;11.18;;;6.30;71.80;;;;;;4992242;28;20224;-88
2022/03/12 04:20:43;;;;;;;13.53;9.27;;;6.10;71.30;;;;;;4996259;28;20702;-88
2022/03/12 04:23:12;;;;;;;16.75;9.20;;;6.10;71.20;;;;;;4981910;28;21005;-87
2022/03/12 04:25:40;;;;;;;16.50;9.57;;;5.80;70.70;;;;;;4977805;28;20209;-88
2022/03/12 04:28:09;;;;;;;12.25;9.50;;;5.90;71.70;;;;;;4977541;28;20672;-88
2022/03/12 04:30:38;;;;;;;17.33;10.05;;;5.70;70.60;;;;;;4976671;28;20236;-88
2022/03/12 04:33:07;;;;;;;17.50;10.00;;;6.00;71.30;;;;;;4976921;28;20208;-88
2022/03/12 04:35:36;;;;;;;18.88;10.13;;;6.00;71.50;;;;;;4976420;28;20201;-88
2022/03/12 04:38:03;;;;;;;15.20;9.77;;;5.60;71.20;;;;;;4977933;28;20216;-88
2022/03/12 04:40:31;;;;;;;15.75;9.27;;;5.90;71.60;;;;;;4978776;28;20237;-87
2022/03/12 04:42:58;;;;;;;13.77;9.30;;;5.60;71.30;;;;;;4978673;28;20248;-87
2022/03/12 04:45:27;;;;;;;16.20;10.93;;;5.70;72.00;;;;;;4980426;28;20664;-88
2022/03/12 04:47:55;;;;;;;13.68;9.32;;;5.90;71.40;;;;;;4978522;28;20233;-88
2022/03/12 04:50:24;;;;;;;15.52;9.70;;;6.10;71.70;;;;;;4983343;28;20625;-88
2022/03/12 04:52:54;;;;;;;15.55;10.50;;;5.70;71.20;;;;;;4994491;28;20205;-88
2022/03/12 04:55:23;;;;;;;14.80;10.00;;;5.50;71.20;;;;;;4985665;28;20185;-87
2022/03/12 04:57:51;;;;;;;13.65;9.57;;;5.70;71.40;;;;;;4993765;28;20232;-88
2022/03/12 05:00:22;;;;;;;17.15;9.48;;;5.60;71.20;;;;;;4979037;28;20223;-88
2022/03/12 05:02:54;;;;;;;16.20;8.90;;;5.90;72.60;;;;;;4977599;28;20213;-88
2022/03/12 05:05:21;;;;;;;15.07;10.27;;;5.90;71.70;;;;;;4976203;28;20220;-88
2022/03/12 05:07:48;;;;;;;11.63;8.90;;;5.60;71.00;;;;;;4975615;28;20738;-88
2022/03/12 05:10:18;;;;;;;16.13;9.43;;;6.00;71.30;;;;;;4976056;28;20205;-88
2022/03/12 05:12:48;;;;;;;15.05;9.07;;;5.60;70.60;;;;;;4977016;28;20205;-88
2022/03/12 05:15:16;;;;;;;17.38;9.18;;;6.30;71.10;;;;;;4977198;28;20382;-88
2022/03/12 05:17:46;;;;;;;18.35;9.32;;;6.20;70.90;;;;;;4976551;28;20244;-88
2022/03/12 05:20:18;;;;;;;15.10;9.52;;;6.20;70.20;;;;;;4975856;28;20624;-88
2022/03/12 05:22:45;;;;;;;13.55;9.90;;;6.10;69.40;;;;;;4976376;28;20213;-88
2022/03/12 05:25:13;;;;;;;12.85;9.15;;;6.10;68.80;;;;;;4977492;28;20292;-88
2022/03/12 05:27:41;;;;;;;14.70;8.82;;;6.60;68.70;;;;;;4987771;28;20208;-88
2022/03/12 05:30:10;;;;;;;15.93;9.20;;;6.50;68.30;;;;;;4988922;28;20227;-88
2022/03/12 05:32:37;;;;;;;12.77;8.48;;;6.50;68.50;;;;;;4985731;28;20208;-88
2022/03/12 05:35:04;;;;;;;15.02;9.75;;;6.30;68.10;;;;;;4976826;28;20292;-88
2022/03/12 05:37:31;;;;;;;14.45;9.25;;;6.40;68.70;;;;;;4978115;28;20331;-88
2022/03/12 05:39:58;;;;;;;14.30;8.55;;;6.10;68.30;;;;;;4979689;28;20221;-88
2022/03/12 05:42:25;;;;;;;15.77;9.52;;;6.40;68.10;;;;;;4997267;28;20204;-88
2022/03/12 05:44:57;;;;;;;15.60;9.32;;;6.40;67.00;;;;;;4989603;28;20215;-87
2022/03/12 05:47:24;;;;;;;12.80;9.43;;;6.40;67.40;;;;;;4979318;28;20207;-88
2022/03/12 05:49:52;;;;;;;25.30;9.13;;;6.40;67.10;;;;;;4976108;28;20715;-88
2022/03/12 05:52:20;;;;;;;15.32;9.70;;;6.10;66.90;;;;;;4978060;28;20715;-88
2022/03/12 05:54:48;;;;;;;12.25;9.60;;;6.00;66.90;;;;;;4979724;28;20654;-88
2022/03/12 05:57:15;;;;;;;16.05;8.63;;;6.20;66.60;;;;;;4977528;28;20205;-88
2022/03/12 05:59:42;;;;;;;14.00;9.30;;;6.40;67.90;;;;;;4980351;28;20224;-88
2022/03/12 06:02:10;;;;;;;16.45;8.95;;;6.20;67.00;;;;;;4979584;28;20229;-88
2022/03/12 06:04:37;;;;;;;17.00;8.85;;;6.10;67.20;;;;;;4987628;28;20296;-88
2022/03/12 06:07:05;;;;;;;16.92;9.60;;;6.00;67.40;;;;;;5000959;28;20243;-88
2022/03/12 06:09:33;;;;;;;13.63;8.82;;;6.20;67.80;;;;;;4991198;28;20220;-88
2022/03/12 06:12:00;;;;;;;14.50;8.88;;;6.20;67.90;;;;;;4999793;28;20233;-88
2022/03/12 06:14:28;;;;;;;13.77;8.98;;;6.20;67.80;;;;;;4991623;28;20236;-88
2022/03/12 06:16:55;;;;;;;16.98;8.05;;;6.30;67.80;;;;;;4981551;28;20671;-88
2022/03/12 06:19:24;;;;;;;16.55;8.70;;;6.20;67.60;;;;;;4987917;28;20200;-88
2022/03/12 06:21:51;;;;;;;18.80;9.02;;;6.30;67.50;;;;;;5000373;28;20213;-87
2022/03/12 06:24:18;;;;;;;19.70;9.45;;;6.50;66.80;;;;;;4981866;28;20236;-88
2022/03/12 06:26:45;;;;;;;16.10;9.45;;;6.50;67.10;;;;;;4986790;28;20220;-88
2022/03/12 06:29:13;;;;;;;15.13;9.00;;;6.60;66.90;;;;;;4997562;28;20197;-87
2022/03/12 06:31:43;;;;;;;20.55;8.85;;;6.50;67.30;;;;;;4985452;28;20235;-88
2022/03/12 06:34:12;;;;;;;18.73;9.20;;;6.20;67.40;;;;;;4982584;28;20189;-87
2022/03/12 06:36:44;;;;;;;18.70;8.68;;;6.40;67.80;;;;;;4981661;28;20303;-88
2022/03/12 06:39:11;;;;;;;12.75;8.32;;;6.00;66.60;;;;;;4982549;28;20201;-87
2022/03/12 06:41:44;;;;;;;12.63;8.30;;;6.40;66.50;;;;;;4983849;28;20263;-87
2022/03/12 06:44:12;;;;;;;14.55;8.32;;;6.40;66.50;;;;;;4992005;28;20236;-87
2022/03/12 06:46:39;;;;;;;16.45;8.82;;;6.20;66.50;;;;;;4987673;28;20750;-88
2022/03/12 06:49:07;;;;;;;13.80;8.02;;;6.40;66.80;;;;;;4981825;28;20213;-87
2022/03/12 06:51:34;;;;;;;14.35;9.82;;;6.50;66.40;;;;;;4987092;28;20229;-88
2022/03/12 06:54:04;;;;;;;13.20;9.40;;;6.20;66.00;;;;;;4992035;28;20268;-87
2022/03/12 06:56:34;;;;;;;12.55;8.75;;;6.40;66.40;;;;;;4993147;28;20208;-87
2022/03/12 06:59:01;;;;;;;12.93;8.32;;;6.50;66.70;;;;;;4992410;28;20212;-88
2022/03/12 07:01:30;;;;;;;14.77;8.73;;;6.40;66.80;;;;;;4987295;28;20241;-88
2022/03/12 07:03:57;;;;;;;12.48;7.95;;;6.60;66.90;;;;;;4993978;28;20211;-88
2022/03/12 07:06:24;;;;;;;12.75;8.40;;;6.60;66.50;;;;;;4996408;28;20216;-88
2022/03/12 07:08:51;;;;;;;13.13;8.38;;;6.80;65.50;;;;;;4992026;28;20249;-88
2022/03/12 07:11:20;;;;;;;14.52;9.18;;;6.70;64.90;;;;;;4986573;28;20225;-88
2022/03/12 07:13:48;;;;;;;12.02;8.40;;;6.80;64.90;;;;;;4984846;28;20671;-87
2022/03/12 07:16:16;;;;;;;12.65;8.45;;;6.70;64.80;;;;;;4980944;28;20236;-89
2022/03/12 07:18:43;;;;;;;15.07;9.55;;;6.70;64.50;;;;;;4980085;28;20581;-88
2022/03/12 07:21:14;;;;;;;15.88;10.07;;;6.80;64.60;;;;;;4985632;28;20232;-89
2022/03/12 07:23:41;;;;;;;14.88;8.50;;;6.40;64.20;;;;;;4983044;28;20200;-88
2022/03/12 07:26:09;;;;;;;13.33;8.70;;;6.50;63.90;;;;;;4979788;28;20233;-88
2022/03/12 07:28:37;;;;;;;19.90;8.80;;;6.90;64.20;;;;;;4979995;28;20874;-89
2022/03/12 07:31:07;;;;;;;16.85;9.25;;;7.00;64.10;;;;;;4979853;28;20240;-89
2022/03/12 07:33:34;;;;;;;13.43;9.37;;;7.00;63.60;;;;;;4988106;28;20222;-88
2022/03/12 07:36:01;;;;;;;16.85;10.15;;;7.00;63.50;;;;;;4990958;28;20531;-88
2022/03/12 07:38:28;;;;;;;16.98;9.82;;;7.00;63.40;;;;;;4991831;28;20212;-88
2022/03/12 07:40:55;;;;;;;16.27;9.60;;;7.00;63.40;;;;;;4980403;28;20232;-87
2022/03/12 07:43:23;;;;;;;15.50;9.38;;;6.70;62.80;;;;;;4980226;28;20299;-87
2022/03/12 07:45:51;;;;;;;13.90;8.88;;;7.10;63.30;;;;;;4983602;28;20204;-88
2022/03/12 07:48:18;;;;;;;16.30;9.20;;;7.00;63.50;;;;;;4980449;28;20200;-88
2022/03/12 07:50:46;;;;;;;15.45;9.98;;;6.80;63.10;;;;;;4981346;28;20488;-87
2022/03/12 07:53:14;;;;;;;14.88;9.82;;;7.20;63.60;;;;;;4993515;28;20232;-88
2022/03/12 07:55:44;;;;;;;12.13;9.73;;;6.70;63.10;;;;;;4999224;28;20189;-88
2022/03/12 07:58:14;;;;;;;14.80;9.73;;;7.10;63.60;;;;;;4991593;28;20448;-88
2022/03/12 08:00:45;;;;;;;19.90;10.43;;;7.10;64.00;;;;;;4983323;28;20564;-89
2022/03/12 08:03:23;;;;;;;12.70;10.18;;;6.90;63.50;;;;;;4982867;28;20944;-89
2022/03/12 08:05:51;;;;;;;15.35;10.07;;;7.20;63.60;;;;;;4985429;28;20220;-88
2022/03/12 08:08:40;;;;;;;18.70;10.93;;;7.40;63.80;;;;;;4985322;28;20224;-89
2022/03/12 08:13:53;;;;;;;18.20;11.63;;;7.50;63.40;;;;;;4985390;28;20215;-89
2022/03/12 08:16:21;;;;;;;14.55;9.40;;;7.60;63.80;;;;;;4979273;28;20467;-88
2022/03/12 08:18:49;;;;;;;17.03;10.83;;;7.60;64.50;;;;;;4978224;28;20209;-88
2022/03/12 08:21:16;;;;;;;16.37;10.77;;;7.70;63.60;;;;;;4980897;28;20542;-88
2022/03/12 08:23:45;;;;;;;16.50;10.77;;;7.80;63.30;;;;;;4990074;28;20487;-88
2022/03/12 08:26:12;;;;;;;16.73;11.53;;;7.90;63.80;;;;;;4998295;28;20547;-88
2022/03/12 08:28:39;;;;;;;15.53;10.30;;;8.10;63.60;;;;;;4989209;28;20459;-90
2022/03/12 08:31:07;;;;;;;16.80;11.20;;;8.10;63.10;;;;;;4984313;28;20451;-87
2022/03/12 08:33:35;;;;;;;17.03;11.00;;;8.20;62.90;;;;;;4988581;28;20444;-89
2022/03/12 08:36:05;;;;;;;17.10;11.20;;;8.30;62.90;;;;;;4993125;28;20480;-88
2022/03/12 08:38:32;;;;;;;16.13;11.00;;;8.60;62.20;;;;;;4993810;28;20472;-89
2022/03/12 08:40:59;;;;;;;19.97;11.77;;;8.70;61.80;;;;;;4987555;28;20570;-89
2022/03/12 08:43:26;;;;;;;14.77;10.83;;;8.70;62.10;;;;;;4989047;28;20886;-88
2022/03/12 08:45:53;;;;;;;15.87;10.80;;;8.80;62.10;;;;;;4980794;28;20479;-88
2022/03/12 08:48:20;;;;;;;17.70;11.10;;;8.90;62.30;;;;;;4982186;28;20847;-88
2022/03/12 08:50:50;;;;;;;13.10;10.63;;;9.00;61.80;;;;;;4985165;28;20515;-89
2022/03/12 08:53:21;;;;;;;17.57;11.57;;;9.00;61.60;;;;;;4997819;28;20429;-90
2022/03/12 08:55:50;;;;;;;16.53;11.30;;;9.20;61.40;;;;;;4995428;28;20535;-90
2022/03/12 08:58:18;;;;;;;17.43;11.03;;;9.20;61.30;;;;;;4990765;28;20447;-89
2022/03/12 09:00:45;;;;;;;16.77;10.70;;;9.30;61.30;;;;;;4998413;28;20480;-89
2022/03/12 09:03:13;;;;;;;16.40;11.63;;;9.40;61.50;;;;;;4984230;28;20511;-88
2022/03/12 09:05:41;;;;;;;19.10;12.00;;;9.50;61.10;;;;;;4979778;28;20460;-89
2022/03/12 09:08:09;;;;;;;16.43;11.20;;;9.60;61.40;;;;;;4981577;28;20468;-88
2022/03/12 09:10:37;;;;;;;17.80;12.00;;;9.80;61.00;;;;;;4993596;28;20491;-89
2022/03/12 09:13:06;;;;;;;19.50;12.50;;;9.70;60.60;;;;;;4993440;28;20487;-88
2022/03/12 09:15:36;;;;;;;20.73;12.20;;;9.60;61.40;;;;;;4989895;28;20539;-89
2022/03/12 09:18:03;;;;;;;19.33;12.33;;;9.60;61.40;;;;;;4982840;28;20448;-89
2022/03/12 09:20:30;;;;;;;16.53;11.70;;;9.70;61.70;;;;;;4981793;28;20559;-89
2022/03/12 09:22:57;;;;;;;17.60;11.60;;;9.90;60.80;;;;;;4983282;28;20435;-88
2022/03/12 09:25:24;;;;;;;17.20;12.57;;;9.90;60.80;;;;;;4986800;28;20439;-89
2022/03/12 09:27:53;;;;;;;21.20;12.77;;;10.10;59.60;;;;;;4985392;28;20897;-89
2022/03/12 09:30:20;;;;;;;22.20;13.87;;;10.10;59.30;;;;;;4993233;28;20452;-89
2022/03/12 09:32:49;;;;;;;19.90;12.37;;;10.20;59.30;;;;;;5014944;23;20499;-89
2022/03/12 09:35:16;;;;;;;17.33;11.60;;;10.20;59.20;;;;;;4998127;28;20452;-87
2022/03/12 09:37:43;;;;;;;17.67;12.60;;;10.40;59.20;;;;;;4990153;28;20475;-87
2022/03/12 09:40:15;;;;;;;18.43;11.40;;;10.40;59.10;;;;;;4990047;28;20452;-87
2022/03/12 09:42:42;;;;;;;18.73;11.37;;;10.30;59.00;;;;;;4991337;28;20847;-88
2022/03/12 09:45:12;;;;;;;18.37;13.10;;;10.40;58.70;;;;;;4990375;28;20474;-88
2022/03/12 09:47:39;;;;;;;21.70;12.77;;;10.40;58.70;;;;;;4991512;28;20436;-89
2022/03/12 09:50:07;;;;;;;17.17;11.90;;;10.40;58.90;;;;;;4991810;28;20448;-87
2022/03/12 09:52:34;;;;;;;17.20;12.80;;;10.50;58.40;;;;;;4989804;28;20472;-86
2022/03/12 09:55:02;;;;;;;17.37;12.10;;;10.70;58.30;;;;;;4984392;28;20480;-87
2022/03/12 09:57:29;;;;;;;23.43;13.67;;;10.70;58.10;;;;;;4985528;28;20456;-87
2022/03/12 09:59:56;;;;;;;18.90;12.83;;;10.90;58.20;;;;;;4985643;28;20441;-87
2022/03/12 10:02:25;;;;;;;22.10;12.80;;;11.00;57.70;;;;;;4986336;28;20495;-87
2022/03/12 10:04:53;;;;;;;17.33;11.93;;;11.10;57.30;;;;;;4987884;28;20467;-88
2022/03/12 10:07:20;;;;;;;18.53;11.83;;;11.20;57.00;;;;;;4987180;28;20452;-88
2022/03/12 10:09:49;;;;;;;17.10;12.67;;;11.40;57.20;;;;;;4988670;28;20452;-87
2022/03/12 10:12:19;;;;;;;19.30;11.73;;;11.40;56.90;;;;;;4988162;28;20849;-88
2022/03/12 10:14:48;;;;;;;19.10;12.87;;;11.50;56.90;;;;;;4989076;28;20459;-88
2022/03/12 10:17:15;;;;;;;29.63;12.40;;;11.50;56.70;;;;;;4988728;28;20450;-89
2022/03/12 10:19:44;;;;;;;19.57;12.60;;;11.60;57.20;;;;;;4988943;28;20460;-87
2022/03/12 10:22:12;;;;;;;20.60;13.03;;;11.80;57.40;;;;;;4992491;28;20495;-89
2022/03/12 10:24:40;;;;;;;16.37;11.33;;;11.80;57.20;;;;;;4989636;28;20459;-87
2022/03/12 10:27:08;;;;;;;18.07;12.77;;;11.80;57.40;;;;;;4989244;28;20467;-88
2022/03/12 10:29:35;;;;;;;19.77;12.80;;;11.80;58.00;;;;;;4989379;28;20516;-88
2022/03/12 10:32:20;;;;;;;18.20;13.10;;;11.80;58.70;;;;;;4989202;28;20460;-87
2022/03/12 10:34:52;;;;;;;23.07;13.00;;;12.00;59.40;;;;;;4990136;28;20471;-88
2022/03/12 10:37:21;;;;;;;17.83;12.33;;;12.20;61.00;;;;;;4989734;28;20511;-88
2022/03/12 10:40:03;;;;;;;19.90;13.40;;;12.30;59.20;;;;;;4992737;28;20530;-88
2022/03/12 10:42:31;;;;;;;16.20;12.10;;;12.40;59.10;;;;;;4990603;28;20488;-88
2022/03/12 10:45:07;;;;;;;22.63;13.40;;;12.40;59.10;;;;;;4990112;28;20439;-86
2022/03/12 10:47:39;;;;;;;22.67;14.03;;;12.30;59.50;;;;;;4990266;28;20418;-89
2022/03/12 10:50:11;;;;;;;22.40;13.37;;;12.40;59.70;;;;;;4986887;28;20467;-87
2022/03/12 10:52:45;;;;;;;26.30;13.73;;;12.40;59.50;;;;;;4993906;28;20480;-88
2022/03/12 10:55:18;;;;;;;20.93;13.60;;;12.50;59.80;;;;;;4989716;28;20441;-88
2022/03/12 10:58:00;;;;;;;22.50;14.47;;;12.70;58.70;;;;;;4999671;28;20437;-88
2022/03/12 11:00:30;;;;;;;18.80;13.93;;;12.90;58.00;;;;;;4996115;28;20492;-88
2022/03/12 11:03:11;;;;;;;19.07;13.53;;;12.80;58.10;;;;;;4993369;28;20496;-88
2022/03/12 11:05:41;;;;;;;22.77;13.60;;;12.80;58.50;;;;;;4987294;28;20484;-88
2022/03/12 11:08:17;;;;;;;18.10;12.87;;;12.70;58.70;;;;;;4986797;28;20730;-89
2022/03/12 11:10:50;;;;;;;18.40;12.97;;;12.80;59.10;;;;;;4984679;28;20471;-89
2022/03/12 11:13:37;;;;;;;19.00;13.60;;;13.00;59.40;;;;;;4983531;28;20523;-89
2022/03/12 11:16:21;;;;;;;20.50;13.67;;;13.00;59.20;;;;;;4984395;28;20811;-88
2022/03/12 11:19:01;;;;;;;18.50;13.60;;;13.00;59.40;;;;;;4989348;28;20428;-89
2022/03/12 11:21:40;;;;;;;18.57;13.60;;;13.00;59.80;;;;;;4990738;28;20474;-88
2022/03/12 11:24:16;;;;;;;16.87;12.03;;;13.00;60.50;;;;;;4993213;28;20445;-88
2022/03/12 11:26:48;;;;;;;15.87;12.40;;;13.20;60.70;;;;;;4990969;28;20452;-89
2022/03/12 11:29:16;;;;;;;20.57;12.53;;;13.00;60.60;;;;;;4987117;28;20456;-88
2022/03/12 11:31:51;;;;;;;16.77;11.90;;;12.90;60.60;;;;;;4985658;28;20846;-86
2022/03/12 11:34:23;;;;;;;16.07;11.50;;;13.10;60.70;;;;;;4988265;28;20423;-89
2022/03/12 11:37:12;;;;;;;15.60;9.90;;;13.10;61.00;;;;;;4984920;28;20440;-86
2022/03/12 11:39:42;;;;;;;15.40;9.77;;;13.10;60.70;;;;;;4985073;28;20429;-88
2022/03/12 11:42:12;;;;;;;20.23;12.50;;;13.00;62.40;;;;;;4984062;28;20565;-87
2022/03/12 11:44:40;;;;;;;17.17;12.30;;;13.00;62.60;;;;;;4988381;28;20439;-86
2022/03/12 11:47:14;;;;;;;17.93;12.80;;;13.20;63.00;;;;;;4991235;28;20447;-87
2022/03/12 11:49:45;;;;;;;14.10;10.70;;;13.40;63.20;;;;;;4985156;28;20476;-88
2022/03/12 11:52:15;;;;;;;16.57;11.70;;;13.70;63.60;;;;;;4986731;28;20451;-88
2022/03/12 11:54:43;;;;;;;15.10;10.50;;;13.80;63.70;;;;;;4984145;28;20419;-89
2022/03/12 11:57:11;;;;;;;15.50;11.60;;;13.90;63.70;;;;;;4992743;28;20433;-89
2022/03/12 11:59:40;;;;;;;15.57;10.63;;;13.80;64.30;;;;;;4984724;28;20473;-87
2022/03/12 12:02:24;;;;;;;20.67;11.67;;;13.90;64.50;;;;;;4983343;28;20492;-89
2022/03/12 12:04:58;;;;;;;13.80;10.57;;;13.80;63.80;;;;;;4987013;28;20421;-88
2022/03/12 12:07:36;;;;;;;17.40;10.03;;;13.80;64.80;;;;;;4988693;28;20531;-89
2022/03/12 12:10:12;;;;;;;15.00;10.80;;;13.80;65.30;;;;;;4984535;28;20426;-88
2022/03/12 12:12:46;;;;;;;16.47;10.83;;;13.80;65.40;;;;;;4986282;28;20450;-90
2022/03/12 12:15:24;;;;;;;16.47;11.43;;;13.90;64.80;;;;;;4982299;28;20499;-88
2022/03/12 12:17:52;;;;;;;18.50;10.50;;;13.80;65.10;;;;;;4992410;28;20406;-88
2022/03/12 12:20:22;;;;;;;13.93;8.80;;;13.80;65.30;;;;;;4995297;28;20476;-89
2022/03/12 12:22:54;;;;;;;15.37;10.37;;;13.70;66.10;;;;;;4987367;28;20463;-87
2022/03/12 12:25:21;;;;;;;14.87;10.30;;;13.80;66.50;;;;;;4988967;28;20418;-87
2022/03/12 12:27:51;;;;;;;16.50;9.60;;;13.80;66.00;;;;;;4986802;28;20448;-88
2022/03/12 12:30:28;;;;;;;13.13;9.40;;;13.90;67.70;;;;;;4989349;28;20460;-87
2022/03/12 12:33:01;;;;;;;14.57;10.80;;;14.00;67.30;;;;;;4988206;28;20472;-88
2022/03/12 12:35:31;;;;;;;15.00;11.10;;;14.10;67.70;;;;;;4985503;28;20584;-88
2022/03/12 12:38:02;;;;;;;17.10;11.77;;;14.10;66.10;;;;;;4983711;28;20567;-87
2022/03/12 12:40:36;;;;;;;17.60;11.40;;;14.20;65.90;;;;;;4986036;28;20445;-89
2022/03/12 12:43:18;;;;;;;15.47;10.73;;;14.30;64.70;;;;;;4987732;28;20465;-88
2022/03/12 12:46:09;;;;;;;14.30;10.50;;;14.30;63.20;;;;;;4985639;28;20467;-87
2022/03/12 12:49:11;;;;;;;16.17;10.27;;;14.40;63.40;;;;;;4992984;28;20473;-87
2022/03/12 12:51:52;;;;;;;15.20;11.03;;;14.40;64.00;;;;;;4985690;28;20812;-87
2022/03/12 12:54:48;;;;;;;14.57;11.57;;;14.30;64.20;;;;;;4986498;28;20449;-89
2022/03/12 12:57:25;;;;;;;16.97;11.07;;;14.30;63.90;;;;;;4987838;28;20840;-87